sensor_id;sensor_type;location;lat;lon;timestamp;temperature;humidity
52669;DHT22;59898;52.786;6.892;2023-09-18T00:01:22;19.30;93.60
52669;DHT22;59898;52.786;6.892;2023-09-18T00:04:42;19.30;93.60
52669;DHT22;59898;52.786;6.892;2023-09-18T00:08:03;19.40;93.50
52669;DHT22;59898;52.786;6.892;2023-09-18T00:11:24;19.30;93.40
52669;DHT22;59898;52.786;6.892;2023-09-18T00:14:48;19.30;93.30
52669;DHT22;59898;52.786;6.892;2023-09-18T00:18:09;19.30;93.30
52669;DHT22;59898;52.786;6.892;2023-09-18T00:21:30;19.30;93.30
52669;DHT22;59898;52.786;6.892;2023-09-18T00:24:51;19.30;93.40
52669;DHT22;59898;52.786;6.892;2023-09-18T00:28:11;19.20;93.50
52669;DHT22;59898;52.786;6.892;2023-09-18T00:31:32;19.20;93.50
52669;DHT22;59898;52.786;6.892;2023-09-18T00:34:52;19.20;93.50
52669;DHT22;59898;52.786;6.892;2023-09-18T00:38:13;19.10;93.40
52669;DHT22;59898;52.786;6.892;2023-09-18T00:41:33;19.10;93.60
52669;DHT22;59898;52.786;6.892;2023-09-18T00:44:54;19.10;93.70
52669;DHT22;59898;52.786;6.892;2023-09-18T00:48:16;19.00;93.80
52669;DHT22;59898;52.786;6.892;2023-09-18T00:51:37;19.00;93.70
52669;DHT22;59898;52.786;6.892;2023-09-18T00:54:57;19.00;93.70
52669;DHT22;59898;52.786;6.892;2023-09-18T00:58:18;19.00;93.70
52669;DHT22;59898;52.786;6.892;2023-09-18T01:01:40;19.00;93.70
52669;DHT22;59898;52.786;6.892;2023-09-18T01:05:01;18.90;93.70
52669;DHT22;59898;52.786;6.892;2023-09-18T01:08:21;18.90;93.70
52669;DHT22;59898;52.786;6.892;2023-09-18T01:15:15;18.90;93.60
52669;DHT22;59898;52.786;6.892;2023-09-18T01:18:37;18.90;93.60
52669;DHT22;59898;52.786;6.892;2023-09-18T01:21:58;18.90;93.50
52669;DHT22;59898;52.786;6.892;2023-09-18T01:25:18;18.80;93.60
52669;DHT22;59898;52.786;6.892;2023-09-18T01:28:39;18.80;93.50
52669;DHT22;59898;52.786;6.892;2023-09-18T01:31:59;18.80;93.50
52669;DHT22;59898;52.786;6.892;2023-09-18T01:35:20;18.80;93.40
52669;DHT22;59898;52.786;6.892;2023-09-18T01:38:44;18.80;93.30
52669;DHT22;59898;52.786;6.892;2023-09-18T01:42:06;18.80;93.40
52669;DHT22;59898;52.786;6.892;2023-09-18T01:45:27;18.80;93.30
52669;DHT22;59898;52.786;6.892;2023-09-18T01:48:47;18.80;93.40
52669;DHT22;59898;52.786;6.892;2023-09-18T01:52:09;18.80;93.40
52669;DHT22;59898;52.786;6.892;2023-09-18T01:55:30;18.80;93.40
52669;DHT22;59898;52.786;6.892;2023-09-18T01:58:50;18.70;93.50
52669;DHT22;59898;52.786;6.892;2023-09-18T02:02:11;18.70;93.50
52669;DHT22;59898;52.786;6.892;2023-09-18T02:05:32;18.70;93.60
52669;DHT22;59898;52.786;6.892;2023-09-18T02:08:53;18.70;93.60
52669;DHT22;59898;52.786;6.892;2023-09-18T02:12:15;18.70;93.80
52669;DHT22;59898;52.786;6.892;2023-09-18T02:15:38;18.70;93.90
52669;DHT22;59898;52.786;6.892;2023-09-18T02:18:59;18.60;93.90
52669;DHT22;59898;52.786;6.892;2023-09-18T02:22:20;18.60;93.90
52669;DHT22;59898;52.786;6.892;2023-09-18T02:25:40;18.60;93.90
52669;DHT22;59898;52.786;6.892;2023-09-18T02:29:04;18.70;94.00
52669;DHT22;59898;52.786;6.892;2023-09-18T02:32:24;18.60;94.10
52669;DHT22;59898;52.786;6.892;2023-09-18T02:35:45;18.60;94.10
52669;DHT22;59898;52.786;6.892;2023-09-18T02:39:06;18.70;94.00
52669;DHT22;59898;52.786;6.892;2023-09-18T02:42:26;18.70;93.90
52669;DHT22;59898;52.786;6.892;2023-09-18T02:45:47;18.70;93.90
52669;DHT22;59898;52.786;6.892;2023-09-18T02:49:07;18.70;93.90
52669;DHT22;59898;52.786;6.892;2023-09-18T02:52:28;18.70;93.80
52669;DHT22;59898;52.786;6.892;2023-09-18T02:55:54;18.70;93.70
52669;DHT22;59898;52.786;6.892;2023-09-18T02:59:15;18.70;93.60
52669;DHT22;59898;52.786;6.892;2023-09-18T03:02:35;18.70;93.50
52669;DHT22;59898;52.786;6.892;2023-09-18T03:06:01;18.70;93.50
52669;DHT22;59898;52.786;6.892;2023-09-18T03:09:22;18.70;93.40
52669;DHT22;59898;52.786;6.892;2023-09-18T03:12:43;18.70;93.40
52669;DHT22;59898;52.786;6.892;2023-09-18T03:16:03;18.70;93.30
52669;DHT22;59898;52.786;6.892;2023-09-18T03:19:24;18.70;93.20
52669;DHT22;59898;52.786;6.892;2023-09-18T03:22:45;18.70;93.20
52669;DHT22;59898;52.786;6.892;2023-09-18T03:26:05;18.70;93.20
52669;DHT22;59898;52.786;6.892;2023-09-18T03:29:26;18.80;93.10
52669;DHT22;59898;52.786;6.892;2023-09-18T03:32:47;18.80;93.10
52669;DHT22;59898;52.786;6.892;2023-09-18T03:36:11;18.80;93.10
52669;DHT22;59898;52.786;6.892;2023-09-18T03:39:31;18.80;93.00
52669;DHT22;59898;52.786;6.892;2023-09-18T03:42:52;18.80;92.90
52669;DHT22;59898;52.786;6.892;2023-09-18T03:46:12;18.80;92.90
52669;DHT22;59898;52.786;6.892;2023-09-18T03:49:33;18.80;92.80
52669;DHT22;59898;52.786;6.892;2023-09-18T03:52:54;18.90;92.70
52669;DHT22;59898;52.786;6.892;2023-09-18T03:56:14;18.90;92.50
52669;DHT22;59898;52.786;6.892;2023-09-18T03:59:35;18.90;92.50
52669;DHT22;59898;52.786;6.892;2023-09-18T04:02:56;18.90;92.50
52669;DHT22;59898;52.786;6.892;2023-09-18T04:06:16;18.90;92.40
52669;DHT22;59898;52.786;6.892;2023-09-18T04:09:40;18.90;92.50
52669;DHT22;59898;52.786;6.892;2023-09-18T04:13:01;18.90;92.50
52669;DHT22;59898;52.786;6.892;2023-09-18T04:16:21;18.90;92.50
52669;DHT22;59898;52.786;6.892;2023-09-18T04:19:42;18.90;92.50
52669;DHT22;59898;52.786;6.892;2023-09-18T04:23:22;18.90;92.50
52669;DHT22;59898;52.786;6.892;2023-09-18T04:26:43;18.90;92.50
52669;DHT22;59898;52.786;6.892;2023-09-18T04:30:05;18.80;92.60
52669;DHT22;59898;52.786;6.892;2023-09-18T04:33:25;18.80;92.60
52669;DHT22;59898;52.786;6.892;2023-09-18T04:36:47;18.80;92.60
52669;DHT22;59898;52.786;6.892;2023-09-18T04:40:08;18.80;92.60
52669;DHT22;59898;52.786;6.892;2023-09-18T04:43:31;18.80;92.70
52669;DHT22;59898;52.786;6.892;2023-09-18T04:46:52;18.80;92.60
52669;DHT22;59898;52.786;6.892;2023-09-18T04:50:12;18.80;92.70
52669;DHT22;59898;52.786;6.892;2023-09-18T04:53:33;18.80;92.80
52669;DHT22;59898;52.786;6.892;2023-09-18T04:56:54;18.80;92.90
52669;DHT22;59898;52.786;6.892;2023-09-18T05:00:14;18.80;92.80
52669;DHT22;59898;52.786;6.892;2023-09-18T05:03:36;18.80;92.90
52669;DHT22;59898;52.786;6.892;2023-09-18T05:06:56;18.80;92.80
52669;DHT22;59898;52.786;6.892;2023-09-18T05:10:17;18.80;92.90
52669;DHT22;59898;52.786;6.892;2023-09-18T05:13:38;18.80;92.80
52669;DHT22;59898;52.786;6.892;2023-09-18T05:16:58;18.80;92.80
52669;DHT22;59898;52.786;6.892;2023-09-18T05:20:19;18.80;92.70
52669;DHT22;59898;52.786;6.892;2023-09-18T05:23:39;18.80;92.80
52669;DHT22;59898;52.786;6.892;2023-09-18T05:27:00;18.90;92.60
52669;DHT22;59898;52.786;6.892;2023-09-18T05:30:29;18.90;92.50
52669;DHT22;59898;52.786;6.892;2023-09-18T05:33:53;19.00;92.20
52669;DHT22;59898;52.786;6.892;2023-09-18T05:37:13;19.00;92.10
52669;DHT22;59898;52.786;6.892;2023-09-18T05:40:34;19.00;92.10
52669;DHT22;59898;52.786;6.892;2023-09-18T05:43:56;19.10;91.90
52669;DHT22;59898;52.786;6.892;2023-09-18T05:47:16;19.10;91.70
52669;DHT22;59898;52.786;6.892;2023-09-18T05:50:38;19.10;91.60
52669;DHT22;59898;52.786;6.892;2023-09-18T05:53:58;19.20;91.50
52669;DHT22;59898;52.786;6.892;2023-09-18T05:57:19;19.30;91.30
52669;DHT22;59898;52.786;6.892;2023-09-18T06:00:40;19.30;91.00
52669;DHT22;59898;52.786;6.892;2023-09-18T06:04:00;19.30;90.90
52669;DHT22;59898;52.786;6.892;2023-09-18T06:07:27;19.30;90.80
52669;DHT22;59898;52.786;6.892;2023-09-18T06:10:48;19.40;90.70
52669;DHT22;59898;52.786;6.892;2023-09-18T06:14:09;19.30;90.70
52669;DHT22;59898;52.786;6.892;2023-09-18T06:17:30;19.30;90.70
52669;DHT22;59898;52.786;6.892;2023-09-18T06:20:51;19.30;90.70
52669;DHT22;59898;52.786;6.892;2023-09-18T06:24:11;19.30;90.80
52669;DHT22;59898;52.786;6.892;2023-09-18T06:27:36;19.40;90.90
52669;DHT22;59898;52.786;6.892;2023-09-18T06:30:57;19.40;91.10
52669;DHT22;59898;52.786;6.892;2023-09-18T06:34:17;19.40;91.20
52669;DHT22;59898;52.786;6.892;2023-09-18T06:37:38;19.40;91.10
52669;DHT22;59898;52.786;6.892;2023-09-18T06:40:58;19.50;91.40
52669;DHT22;59898;52.786;6.892;2023-09-18T06:44:19;19.40;91.50
52669;DHT22;59898;52.786;6.892;2023-09-18T06:47:39;19.50;91.50
52669;DHT22;59898;52.786;6.892;2023-09-18T06:51:01;19.50;91.60
52669;DHT22;59898;52.786;6.892;2023-09-18T06:54:21;19.50;91.60
52669;DHT22;59898;52.786;6.892;2023-09-18T06:57:42;19.50;91.70
52669;DHT22;59898;52.786;6.892;2023-09-18T07:01:03;19.50;91.70
52669;DHT22;59898;52.786;6.892;2023-09-18T07:04:27;19.60;91.80
52669;DHT22;59898;52.786;6.892;2023-09-18T07:07:47;19.60;92.10
52669;DHT22;59898;52.786;6.892;2023-09-18T07:11:08;19.70;92.20
52669;DHT22;59898;52.786;6.892;2023-09-18T07:14:29;19.70;92.40
52669;DHT22;59898;52.786;6.892;2023-09-18T07:17:49;19.70;92.80
52669;DHT22;59898;52.786;6.892;2023-09-18T07:21:10;19.60;93.40
52669;DHT22;59898;52.786;6.892;2023-09-18T07:24:30;19.60;93.70
52669;DHT22;59898;52.786;6.892;2023-09-18T07:27:51;19.60;93.80
52669;DHT22;59898;52.786;6.892;2023-09-18T07:31:12;19.60;93.70
52669;DHT22;59898;52.786;6.892;2023-09-18T07:34:32;19.60;94.10
52669;DHT22;59898;52.786;6.892;2023-09-18T07:37:53;19.70;93.90
52669;DHT22;59898;52.786;6.892;2023-09-18T07:41:14;19.70;93.90
52669;DHT22;59898;52.786;6.892;2023-09-18T07:44:35;19.80;94.00
52669;DHT22;59898;52.786;6.892;2023-09-18T07:47:56;19.80;94.00
52669;DHT22;59898;52.786;6.892;2023-09-18T07:51:16;19.80;94.30
52669;DHT22;59898;52.786;6.892;2023-09-18T07:54:37;19.80;94.30
52669;DHT22;59898;52.786;6.892;2023-09-18T07:57:58;19.80;94.50
52669;DHT22;59898;52.786;6.892;2023-09-18T08:01:19;19.80;94.50
52669;DHT22;59898;52.786;6.892;2023-09-18T08:04:42;19.80;94.80
52669;DHT22;59898;52.786;6.892;2023-09-18T08:08:03;19.80;94.60
52669;DHT22;59898;52.786;6.892;2023-09-18T08:11:26;19.80;94.70
52669;DHT22;59898;52.786;6.892;2023-09-18T08:14:46;19.80;95.10
52669;DHT22;59898;52.786;6.892;2023-09-18T08:18:07;19.80;94.90
52669;DHT22;59898;52.786;6.892;2023-09-18T08:21:27;19.80;95.20
52669;DHT22;59898;52.786;6.892;2023-09-18T08:24:52;19.80;94.90
52669;DHT22;59898;52.786;6.892;2023-09-18T08:28:13;19.80;94.80
52669;DHT22;59898;52.786;6.892;2023-09-18T08:31:35;19.80;94.80
52669;DHT22;59898;52.786;6.892;2023-09-18T08:34:56;19.80;95.40
52669;DHT22;59898;52.786;6.892;2023-09-18T08:38:16;19.70;95.20
52669;DHT22;59898;52.786;6.892;2023-09-18T08:41:42;19.80;95.20
52669;DHT22;59898;52.786;6.892;2023-09-18T08:45:05;19.80;95.30
52669;DHT22;59898;52.786;6.892;2023-09-18T08:48:28;19.80;95.40
52669;DHT22;59898;52.786;6.892;2023-09-18T08:51:55;19.80;95.40
52669;DHT22;59898;52.786;6.892;2023-09-18T08:55:18;19.90;95.20
52669;DHT22;59898;52.786;6.892;2023-09-18T08:58:40;19.90;95.70
52669;DHT22;59898;52.786;6.892;2023-09-18T09:02:02;19.90;95.70
52669;DHT22;59898;52.786;6.892;2023-09-18T09:05:23;20.00;95.60
52669;DHT22;59898;52.786;6.892;2023-09-18T09:08:44;20.10;95.50
52669;DHT22;59898;52.786;6.892;2023-09-18T09:12:05;20.20;95.30
52669;DHT22;59898;52.786;6.892;2023-09-18T09:15:32;20.20;95.20
52669;DHT22;59898;52.786;6.892;2023-09-18T09:18:52;20.30;95.20
52669;DHT22;59898;52.786;6.892;2023-09-18T09:22:20;20.30;94.70
52669;DHT22;59898;52.786;6.892;2023-09-18T09:25:41;20.30;94.50
52669;DHT22;59898;52.786;6.892;2023-09-18T09:29:18;20.40;94.10
52669;DHT22;59898;52.786;6.892;2023-09-18T09:32:39;20.50;93.70
52669;DHT22;59898;52.786;6.892;2023-09-18T09:36:00;20.50;93.20
52669;DHT22;59898;52.786;6.892;2023-09-18T09:39:24;20.60;92.50
52669;DHT22;59898;52.786;6.892;2023-09-18T09:42:46;20.60;92.50
52669;DHT22;59898;52.786;6.892;2023-09-18T09:46:15;20.60;92.30
52669;DHT22;59898;52.786;6.892;2023-09-18T09:49:47;20.70;91.60
52669;DHT22;59898;52.786;6.892;2023-09-18T09:53:08;20.80;91.00
52669;DHT22;59898;52.786;6.892;2023-09-18T09:56:48;20.90;90.80
52669;DHT22;59898;52.786;6.892;2023-09-18T10:00:11;21.10;89.50
52669;DHT22;59898;52.786;6.892;2023-09-18T10:03:45;21.30;89.00
52669;DHT22;59898;52.786;6.892;2023-09-18T10:07:08;21.40;88.60
52669;DHT22;59898;52.786;6.892;2023-09-18T10:10:32;21.40;87.80
52669;DHT22;59898;52.786;6.892;2023-09-18T10:14:02;21.40;87.00
52669;DHT22;59898;52.786;6.892;2023-09-18T10:17:25;21.40;86.50
52669;DHT22;59898;52.786;6.892;2023-09-18T10:20:50;21.40;87.00
52669;DHT22;59898;52.786;6.892;2023-09-18T10:24:23;21.50;86.30
52669;DHT22;59898;52.786;6.892;2023-09-18T10:27:48;21.60;85.70
52669;DHT22;59898;52.786;6.892;2023-09-18T10:31:19;21.60;85.20
52669;DHT22;59898;52.786;6.892;2023-09-18T10:34:41;21.60;84.70
52669;DHT22;59898;52.786;6.892;2023-09-18T10:38:05;21.70;83.70
52669;DHT22;59898;52.786;6.892;2023-09-18T10:41:27;21.80;83.00
52669;DHT22;59898;52.786;6.892;2023-09-18T10:44:48;21.90;82.80
52669;DHT22;59898;52.786;6.892;2023-09-18T10:48:09;22.10;82.80
52669;DHT22;59898;52.786;6.892;2023-09-18T10:51:32;22.20;81.30
52669;DHT22;59898;52.786;6.892;2023-09-18T10:54:54;22.20;81.10
52669;DHT22;59898;52.786;6.892;2023-09-18T10:58:23;22.40;81.30
52669;DHT22;59898;52.786;6.892;2023-09-18T11:01:45;22.60;80.40
52669;DHT22;59898;52.786;6.892;2023-09-18T11:05:08;22.70;79.80
52669;DHT22;59898;52.786;6.892;2023-09-18T11:08:31;22.80;79.60
52669;DHT22;59898;52.786;6.892;2023-09-18T11:15:33;23.10;77.70
52669;DHT22;59898;52.786;6.892;2023-09-18T11:22:25;23.20;75.90
52669;DHT22;59898;52.786;6.892;2023-09-18T11:25:46;23.20;76.60
52669;DHT22;59898;52.786;6.892;2023-09-18T11:29:09;23.30;76.70
52669;DHT22;59898;52.786;6.892;2023-09-18T11:32:40;23.30;76.80
52669;DHT22;59898;52.786;6.892;2023-09-18T11:36:09;23.20;75.70
52669;DHT22;59898;52.786;6.892;2023-09-18T11:39:33;23.00;74.50
52669;DHT22;59898;52.786;6.892;2023-09-18T11:43:25;23.00;74.40
52669;DHT22;59898;52.786;6.892;2023-09-18T11:46:50;23.20;72.90
52669;DHT22;59898;52.786;6.892;2023-09-18T11:50:12;23.30;72.80
52669;DHT22;59898;52.786;6.892;2023-09-18T11:53:34;23.40;72.40
52669;DHT22;59898;52.786;6.892;2023-09-18T11:56:56;23.40;72.70
52669;DHT22;59898;52.786;6.892;2023-09-18T12:00:19;23.40;72.40
52669;DHT22;59898;52.786;6.892;2023-09-18T12:03:42;23.50;72.60
52669;DHT22;59898;52.786;6.892;2023-09-18T12:07:04;23.60;72.30
52669;DHT22;59898;52.786;6.892;2023-09-18T12:10:25;23.70;71.70
52669;DHT22;59898;52.786;6.892;2023-09-18T12:13:50;23.80;70.30
52669;DHT22;59898;52.786;6.892;2023-09-18T12:17:15;23.80;70.70
52669;DHT22;59898;52.786;6.892;2023-09-18T12:20:35;23.80;70.40
52669;DHT22;59898;52.786;6.892;2023-09-18T12:23:57;23.70;70.30
52669;DHT22;59898;52.786;6.892;2023-09-18T12:27:18;23.50;70.30
52669;DHT22;59898;52.786;6.892;2023-09-18T12:30:39;23.30;70.90
52669;DHT22;59898;52.786;6.892;2023-09-18T12:33:59;23.10;70.90
52669;DHT22;59898;52.786;6.892;2023-09-18T12:37:20;23.00;71.50
52669;DHT22;59898;52.786;6.892;2023-09-18T12:40:41;22.90;72.60
52669;DHT22;59898;52.786;6.892;2023-09-18T12:44:01;22.90;73.30
52669;DHT22;59898;52.786;6.892;2023-09-18T12:47:24;22.80;73.50
52669;DHT22;59898;52.786;6.892;2023-09-18T12:50:54;22.80;74.50
52669;DHT22;59898;52.786;6.892;2023-09-18T12:54:14;22.60;76.10
52669;DHT22;59898;52.786;6.892;2023-09-18T12:57:36;22.50;76.80
52669;DHT22;59898;52.786;6.892;2023-09-18T13:01:07;22.20;77.90
52669;DHT22;59898;52.786;6.892;2023-09-18T13:04:28;22.20;78.60
52669;DHT22;59898;52.786;6.892;2023-09-18T13:07:48;22.10;78.90
52669;DHT22;59898;52.786;6.892;2023-09-18T13:11:11;22.20;79.00
52669;DHT22;59898;52.786;6.892;2023-09-18T13:14:59;22.30;79.00
52669;DHT22;59898;52.786;6.892;2023-09-18T13:18:24;22.30;79.20
52669;DHT22;59898;52.786;6.892;2023-09-18T13:21:49;22.30;79.20
52669;DHT22;59898;52.786;6.892;2023-09-18T13:25:10;22.20;79.20
52669;DHT22;59898;52.786;6.892;2023-09-18T13:28:34;22.30;79.20
52669;DHT22;59898;52.786;6.892;2023-09-18T13:31:56;22.40;79.30
52669;DHT22;59898;52.786;6.892;2023-09-18T13:35:18;22.50;79.10
52669;DHT22;59898;52.786;6.892;2023-09-18T13:38:38;22.50;78.80
52669;DHT22;59898;52.786;6.892;2023-09-18T13:41:59;22.60;78.90
52669;DHT22;59898;52.786;6.892;2023-09-18T13:45:19;22.70;78.70
52669;DHT22;59898;52.786;6.892;2023-09-18T13:48:40;22.80;78.50
52669;DHT22;59898;52.786;6.892;2023-09-18T13:52:00;23.00;77.20
52669;DHT22;59898;52.786;6.892;2023-09-18T13:55:21;23.00;76.00
52669;DHT22;59898;52.786;6.892;2023-09-18T13:58:42;23.00;73.70
52669;DHT22;59898;52.786;6.892;2023-09-18T14:02:02;23.00;74.10
52669;DHT22;59898;52.786;6.892;2023-09-18T14:05:25;23.10;72.10
52669;DHT22;59898;52.786;6.892;2023-09-18T14:08:47;23.10;72.90
52669;DHT22;59898;52.786;6.892;2023-09-18T14:12:08;23.10;72.90
52669;DHT22;59898;52.786;6.892;2023-09-18T14:15:28;23.20;72.60
52669;DHT22;59898;52.786;6.892;2023-09-18T14:18:49;23.40;72.10
52669;DHT22;59898;52.786;6.892;2023-09-18T14:22:10;23.50;71.70
52669;DHT22;59898;52.786;6.892;2023-09-18T14:25:31;23.60;71.20
52669;DHT22;59898;52.786;6.892;2023-09-18T14:28:51;23.70;70.70
52669;DHT22;59898;52.786;6.892;2023-09-18T14:32:12;23.60;70.10
52669;DHT22;59898;52.786;6.892;2023-09-18T14:35:32;23.50;70.30
52669;DHT22;59898;52.786;6.892;2023-09-18T14:38:53;23.30;69.80
52669;DHT22;59898;52.786;6.892;2023-09-18T14:42:15;23.30;69.90
52669;DHT22;59898;52.786;6.892;2023-09-18T14:45:36;23.30;68.60
52669;DHT22;59898;52.786;6.892;2023-09-18T14:48:58;23.20;69.50
52669;DHT22;59898;52.786;6.892;2023-09-18T14:52:19;23.20;69.30
52669;DHT22;59898;52.786;6.892;2023-09-18T14:55:43;23.20;68.40
52669;DHT22;59898;52.786;6.892;2023-09-18T14:59:05;23.20;68.10
52669;DHT22;59898;52.786;6.892;2023-09-18T15:02:27;23.20;68.00
52669;DHT22;59898;52.786;6.892;2023-09-18T15:05:52;23.20;68.30
52669;DHT22;59898;52.786;6.892;2023-09-18T15:09:13;23.20;68.00
52669;DHT22;59898;52.786;6.892;2023-09-18T15:12:34;23.10;67.70
52669;DHT22;59898;52.786;6.892;2023-09-18T15:15:54;23.00;67.40
52669;DHT22;59898;52.786;6.892;2023-09-18T15:19:15;23.00;67.40
52669;DHT22;59898;52.786;6.892;2023-09-18T15:22:37;23.00;67.20
52669;DHT22;59898;52.786;6.892;2023-09-18T15:25:58;23.00;67.70
52669;DHT22;59898;52.786;6.892;2023-09-18T15:29:18;23.10;67.70
52669;DHT22;59898;52.786;6.892;2023-09-18T15:36:08;23.20;67.10
52669;DHT22;59898;52.786;6.892;2023-09-18T15:39:29;23.10;67.00
52669;DHT22;59898;52.786;6.892;2023-09-18T15:42:50;23.20;67.40
52669;DHT22;59898;52.786;6.892;2023-09-18T15:46:13;23.20;67.00
52669;DHT22;59898;52.786;6.892;2023-09-18T15:49:34;23.20;67.10
52669;DHT22;59898;52.786;6.892;2023-09-18T15:52:54;23.20;67.20
52669;DHT22;59898;52.786;6.892;2023-09-18T15:56:17;23.20;67.30
52669;DHT22;59898;52.786;6.892;2023-09-18T15:59:40;23.20;67.20
52669;DHT22;59898;52.786;6.892;2023-09-18T16:03:02;23.20;67.20
52669;DHT22;59898;52.786;6.892;2023-09-18T16:06:23;23.20;66.50
52669;DHT22;59898;52.786;6.892;2023-09-18T16:09:46;23.20;66.00
52669;DHT22;59898;52.786;6.892;2023-09-18T16:13:09;23.10;65.80
52669;DHT22;59898;52.786;6.892;2023-09-18T16:16:29;23.00;65.60
52669;DHT22;59898;52.786;6.892;2023-09-18T16:19:50;23.00;66.30
52669;DHT22;59898;52.786;6.892;2023-09-18T16:23:11;22.90;66.20
52669;DHT22;59898;52.786;6.892;2023-09-18T16:26:35;22.90;66.50
52669;DHT22;59898;52.786;6.892;2023-09-18T16:29:55;22.80;66.00
52669;DHT22;59898;52.786;6.892;2023-09-18T16:33:16;22.70;66.60
52669;DHT22;59898;52.786;6.892;2023-09-18T16:36:36;22.60;66.60
52669;DHT22;59898;52.786;6.892;2023-09-18T16:39:57;22.60;66.60
52669;DHT22;59898;52.786;6.892;2023-09-18T16:43:17;22.50;66.80
52669;DHT22;59898;52.786;6.892;2023-09-18T16:46:41;22.40;66.90
52669;DHT22;59898;52.786;6.892;2023-09-18T16:50:04;22.40;66.70
52669;DHT22;59898;52.786;6.892;2023-09-18T16:53:25;22.30;66.80
52669;DHT22;59898;52.786;6.892;2023-09-18T16:56:46;22.30;67.10
52669;DHT22;59898;52.786;6.892;2023-09-18T17:00:07;22.20;67.50
52669;DHT22;59898;52.786;6.892;2023-09-18T17:03:30;22.10;68.60
52669;DHT22;59898;52.786;6.892;2023-09-18T17:06:50;21.90;70.40
52669;DHT22;59898;52.786;6.892;2023-09-18T17:10:11;21.60;71.90
52669;DHT22;59898;52.786;6.892;2023-09-18T17:13:32;21.20;73.90
52669;DHT22;59898;52.786;6.892;2023-09-18T17:16:52;20.80;75.30
52669;DHT22;59898;52.786;6.892;2023-09-18T17:20:13;20.50;77.30
52669;DHT22;59898;52.786;6.892;2023-09-18T17:23:33;20.10;78.90
52669;DHT22;59898;52.786;6.892;2023-09-18T17:26:55;19.80;79.10
52669;DHT22;59898;52.786;6.892;2023-09-18T17:30:16;19.60;79.20
52669;DHT22;59898;52.786;6.892;2023-09-18T17:33:37;19.20;79.80
52669;DHT22;59898;52.786;6.892;2023-09-18T17:37:00;19.00;79.70
52669;DHT22;59898;52.786;6.892;2023-09-18T17:40:21;18.80;80.30
52669;DHT22;59898;52.786;6.892;2023-09-18T17:43:41;18.50;81.00
52669;DHT22;59898;52.786;6.892;2023-09-18T17:47:03;18.30;81.50
52669;DHT22;59898;52.786;6.892;2023-09-18T17:50:27;18.20;81.90
52669;DHT22;59898;52.786;6.892;2023-09-18T17:53:48;18.10;82.40
52669;DHT22;59898;52.786;6.892;2023-09-18T17:57:08;17.90;82.80
52669;DHT22;59898;52.786;6.892;2023-09-18T18:00:29;17.90;83.00
52669;DHT22;59898;52.786;6.892;2023-09-18T18:03:49;17.80;83.90
52669;DHT22;59898;52.786;6.892;2023-09-18T18:07:11;17.60;84.70
52669;DHT22;59898;52.786;6.892;2023-09-18T18:10:31;17.60;84.40
52669;DHT22;59898;52.786;6.892;2023-09-18T18:13:52;17.50;85.30
52669;DHT22;59898;52.786;6.892;2023-09-18T18:17:13;17.40;85.60
52669;DHT22;59898;52.786;6.892;2023-09-18T18:20:34;17.30;86.20
52669;DHT22;59898;52.786;6.892;2023-09-18T18:23:57;17.30;85.90
52669;DHT22;59898;52.786;6.892;2023-09-18T18:27:17;17.30;86.60
52669;DHT22;59898;52.786;6.892;2023-09-18T18:30:38;17.20;87.10
52669;DHT22;59898;52.786;6.892;2023-09-18T18:34:00;17.20;88.20
52669;DHT22;59898;52.786;6.892;2023-09-18T18:37:20;17.10;89.00
52669;DHT22;59898;52.786;6.892;2023-09-18T18:40:41;17.10;88.50
52669;DHT22;59898;52.786;6.892;2023-09-18T18:44:05;17.00;88.90
52669;DHT22;59898;52.786;6.892;2023-09-18T18:47:25;17.10;88.40
52669;DHT22;59898;52.786;6.892;2023-09-18T18:50:46;17.10;89.00
52669;DHT22;59898;52.786;6.892;2023-09-18T18:54:07;17.10;89.00
52669;DHT22;59898;52.786;6.892;2023-09-18T18:57:30;17.10;89.00
52669;DHT22;59898;52.786;6.892;2023-09-18T19:00:50;17.10;89.00
52669;DHT22;59898;52.786;6.892;2023-09-18T19:04:17;17.20;88.80
52669;DHT22;59898;52.786;6.892;2023-09-18T19:07:37;17.10;89.60
52669;DHT22;59898;52.786;6.892;2023-09-18T19:10:59;17.10;89.40
52669;DHT22;59898;52.786;6.892;2023-09-18T19:14:25;17.20;89.10
52669;DHT22;59898;52.786;6.892;2023-09-18T19:17:48;17.20;88.80
52669;DHT22;59898;52.786;6.892;2023-09-18T19:21:11;17.20;89.60
52669;DHT22;59898;52.786;6.892;2023-09-18T19:24:32;17.20;88.80
52669;DHT22;59898;52.786;6.892;2023-09-18T19:27:52;17.30;88.40
52669;DHT22;59898;52.786;6.892;2023-09-18T19:31:18;17.20;89.10
52669;DHT22;59898;52.786;6.892;2023-09-18T19:34:39;17.20;88.80
52669;DHT22;59898;52.786;6.892;2023-09-18T19:38:00;17.20;88.90
52669;DHT22;59898;52.786;6.892;2023-09-18T19:41:20;17.20;89.00
52669;DHT22;59898;52.786;6.892;2023-09-18T19:44:43;17.20;88.80
52669;DHT22;59898;52.786;6.892;2023-09-18T19:48:04;17.20;89.30
52669;DHT22;59898;52.786;6.892;2023-09-18T19:51:25;17.20;88.70
52669;DHT22;59898;52.786;6.892;2023-09-18T19:54:45;17.30;88.80
52669;DHT22;59898;52.786;6.892;2023-09-18T19:58:06;17.30;88.90
52669;DHT22;59898;52.786;6.892;2023-09-18T20:01:26;17.30;88.40
52669;DHT22;59898;52.786;6.892;2023-09-18T20:04:49;17.30;88.50
52669;DHT22;59898;52.786;6.892;2023-09-18T20:08:10;17.30;88.60
52669;DHT22;59898;52.786;6.892;2023-09-18T20:11:32;17.30;88.40
52669;DHT22;59898;52.786;6.892;2023-09-18T20:14:53;17.30;88.70
52669;DHT22;59898;52.786;6.892;2023-09-18T20:18:14;17.30;89.00
52669;DHT22;59898;52.786;6.892;2023-09-18T20:21:35;17.30;89.00
52669;DHT22;59898;52.786;6.892;2023-09-18T20:24:56;17.30;88.60
52669;DHT22;59898;52.786;6.892;2023-09-18T20:28:16;17.30;88.50
52669;DHT22;59898;52.786;6.892;2023-09-18T20:31:37;17.30;88.70
52669;DHT22;59898;52.786;6.892;2023-09-18T20:34:58;17.30;88.40
52669;DHT22;59898;52.786;6.892;2023-09-18T20:38:19;17.30;88.80
52669;DHT22;59898;52.786;6.892;2023-09-18T20:41:39;17.30;88.70
52669;DHT22;59898;52.786;6.892;2023-09-18T20:45:00;17.30;89.20
52669;DHT22;59898;52.786;6.892;2023-09-18T20:48:21;17.30;89.00
52669;DHT22;59898;52.786;6.892;2023-09-18T20:51:41;17.30;89.00
52669;DHT22;59898;52.786;6.892;2023-09-18T20:55:03;17.40;88.70
52669;DHT22;59898;52.786;6.892;2023-09-18T20:58:25;17.40;88.50
52669;DHT22;59898;52.786;6.892;2023-09-18T21:01:46;17.40;88.30
52669;DHT22;59898;52.786;6.892;2023-09-18T21:05:06;17.40;88.30
52669;DHT22;59898;52.786;6.892;2023-09-18T21:08:27;17.50;88.00
52669;DHT22;59898;52.786;6.892;2023-09-18T21:11:47;17.50;87.90
52669;DHT22;59898;52.786;6.892;2023-09-18T21:15:08;17.50;87.60
52669;DHT22;59898;52.786;6.892;2023-09-18T21:18:30;17.50;87.60
52669;DHT22;59898;52.786;6.892;2023-09-18T21:21:51;17.50;87.50
52669;DHT22;59898;52.786;6.892;2023-09-18T21:25:11;17.50;87.40
52669;DHT22;59898;52.786;6.892;2023-09-18T21:28:32;17.50;87.50